createdAt,value
2022-10-13T00:02:32.649Z,39.58
2022-10-13T00:08:56.861Z,39.69
2022-10-13T00:15:21.165Z,39.78
2022-10-13T00:21:48.342Z,39.91
2022-10-13T00:28:12.479Z,40.00
2022-10-13T00:34:36.760Z,40.12
2022-10-13T00:41:01.086Z,40.19
2022-10-13T00:47:25.380Z,40.21
2022-10-13T00:53:49.693Z,40.28
2022-10-13T01:00:14.002Z,40.49
2022-10-13T01:06:38.365Z,40.43
2022-10-13T01:13:08.500Z,40.19
2022-10-13T01:19:38.731Z,39.71
2022-10-13T01:26:12.050Z,39.22
2022-10-13T01:32:39.118Z,38.48
2022-10-13T01:39:06.002Z,37.86
2022-10-13T01:45:33.234Z,37.38
2022-10-13T01:51:57.440Z,37.11
2022-10-13T01:58:30.526Z,36.88
2022-10-13T02:05:06.825Z,36.72
2022-10-13T02:11:39.808Z,36.76
2022-10-13T02:18:04.118Z,36.58
2022-10-13T02:24:28.501Z,36.65
2022-10-13T02:31:01.572Z,36.63
2022-10-13T02:37:25.838Z,36.61
2022-10-13T02:43:50.129Z,36.70
2022-10-13T02:50:14.157Z,36.72
2022-10-13T02:56:38.385Z,36.90
2022-10-13T03:03:03.289Z,37.12
2022-10-13T03:09:27.614Z,37.01
2022-10-13T03:15:52.113Z,37.26
2022-10-13T03:22:16.506Z,37.23
2022-10-13T03:28:40.972Z,37.54
2022-10-13T03:35:05.226Z,37.75
2022-10-13T03:41:29.570Z,37.74
2022-10-13T03:47:54.002Z,37.94
2022-10-13T03:54:18.287Z,37.88
2022-10-13T04:00:42.593Z,38.09
2022-10-13T04:07:07.112Z,38.00
2022-10-13T04:13:31.412Z,38.34
2022-10-13T04:19:58.597Z,38.21
2022-10-13T04:26:22.792Z,38.29
2022-10-13T04:32:47.077Z,38.34
2022-10-13T04:39:11.092Z,38.70
2022-10-13T04:45:35.340Z,38.84
2022-10-13T04:52:05.592Z,38.99
2022-10-13T04:58:29.874Z,38.73
2022-10-13T05:05:00.089Z,38.97
2022-10-13T05:11:24.410Z,39.22
2022-10-13T05:17:48.722Z,39.23
2022-10-13T05:24:15.958Z,39.23
2022-10-13T05:30:40.250Z,39.39
2022-10-13T05:37:04.566Z,39.59
2022-10-13T05:43:23.858Z,39.81
2022-10-13T05:49:48.173Z,39.77
2022-10-13T05:56:12.355Z,39.73
2022-10-13T06:02:36.568Z,39.69
2022-10-13T06:09:00.886Z,39.27
2022-10-13T06:15:28.306Z,39.00
2022-10-13T06:21:53.027Z,38.23
2022-10-13T06:28:17.551Z,37.46
2022-10-13T06:34:41.814Z,36.92
2022-10-13T06:41:06.451Z,36.50
2022-10-13T06:47:30.873Z,36.16
2022-10-13T06:53:55.184Z,36.13
2022-10-13T07:00:19.415Z,35.62
2022-10-13T07:06:44.088Z,34.97
2022-10-13T07:13:08.442Z,34.81
2022-10-13T07:19:32.904Z,34.60
2022-10-13T07:25:57.313Z,34.50
2022-10-13T07:32:21.622Z,34.43
2022-10-13T07:38:46.240Z,34.25
2022-10-13T07:45:10.458Z,34.08
2022-10-13T07:51:34.697Z,34.02
2022-10-13T07:57:58.976Z,33.84
2022-10-13T08:04:23.185Z,33.74
2022-10-13T08:10:47.649Z,33.82
2022-10-13T08:17:11.898Z,33.64
2022-10-13T08:23:36.155Z,33.71
2022-10-13T08:30:00.479Z,33.67
2022-10-13T08:36:24.761Z,33.80
2022-10-13T08:42:59.483Z,33.69
2022-10-13T08:49:24.853Z,33.71
2022-10-13T08:56:01.063Z,33.71
2022-10-13T09:02:25.342Z,33.49
2022-10-13T09:08:49.665Z,33.46
2022-10-13T09:15:16.628Z,33.31
2022-10-13T09:21:39.082Z,33.28
2022-10-13T09:28:27.753Z,33.26
2022-10-13T09:35:00.997Z,33.12
2022-10-13T09:41:25.326Z,33.01
2022-10-13T09:47:52.373Z,32.98
2022-10-13T09:54:16.617Z,32.92
2022-10-13T10:00:39.339Z,32.88
2022-10-13T10:07:03.641Z,32.91
2022-10-13T10:13:27.897Z,32.89
2022-10-13T10:20:07.260Z,32.84
2022-10-13T10:26:43.339Z,32.91
2022-10-13T10:33:15.328Z,32.81
2022-10-13T10:39:39.630Z,32.78
2022-10-13T10:46:03.949Z,32.87
2022-10-13T10:52:28.686Z,32.88
2022-10-13T10:58:52.993Z,32.84
2022-10-13T11:05:25.985Z,32.93
2022-10-13T11:12:05.403Z,32.94
2022-10-13T11:18:32.618Z,33.03
2022-10-13T11:25:14.775Z,33.08
2022-10-13T11:31:48.089Z,33.11
2022-10-13T11:38:18.082Z,33.25
2022-10-13T11:44:54.382Z,33.35
2022-10-13T11:51:21.414Z,33.46
2022-10-13T11:57:48.470Z,33.48
2022-10-13T12:04:12.518Z,33.59
2022-10-13T12:10:40.069Z,33.60
2022-10-13T12:17:07.255Z,33.66
2022-10-13T12:23:11.154Z,33.79
2022-10-13T12:29:53.335Z,33.80
2022-10-13T12:36:20.366Z,34.24
2022-10-13T12:42:44.688Z,34.39
2022-10-13T12:49:09.052Z,34.61
2022-10-13T12:55:36.363Z,35.23
2022-10-13T13:02:00.704Z,35.58
2022-10-13T13:08:34.004Z,35.92
2022-10-13T13:15:12.370Z,36.07
2022-10-13T13:21:36.639Z,36.14
2022-10-13T13:28:01.096Z,36.34
2022-10-13T13:34:25.451Z,36.51
2022-10-13T13:40:49.818Z,36.28
2022-10-13T13:47:14.098Z,36.19
2022-10-13T13:53:38.301Z,36.00
2022-10-13T14:00:02.714Z,35.61
2022-10-13T14:06:27.221Z,35.06
2022-10-13T14:12:51.489Z,34.40
2022-10-13T14:19:15.774Z,34.05
2022-10-13T14:25:40.084Z,33.84
2022-10-13T14:32:04.385Z,33.65
2022-10-13T14:38:28.566Z,33.63
2022-10-13T14:44:55.989Z,33.59
2022-10-13T14:51:20.297Z,33.85
2022-10-13T14:57:44.604Z,33.83
2022-10-13T15:04:08.936Z,33.92
2022-10-13T15:10:41.638Z,34.02
2022-10-13T15:17:05.916Z,34.18
2022-10-13T15:23:30.226Z,34.25
2022-10-13T15:29:54.523Z,34.06
2022-10-13T15:36:18.730Z,33.82
2022-10-13T15:42:42.972Z,33.85
2022-10-13T15:49:07.292Z,33.75
2022-10-13T15:55:31.585Z,33.32
2022-10-13T16:01:55.889Z,33.46
2022-10-13T16:08:20.113Z,33.40
2022-10-13T16:14:47.287Z,33.20
2022-10-13T16:21:17.261Z,33.22
2022-10-13T16:27:44.490Z,32.92
2022-10-13T16:34:08.990Z,32.57
2022-10-13T16:40:33.231Z,32.34
2022-10-13T16:46:57.492Z,32.16
2022-10-13T16:53:21.879Z,31.87
2022-10-13T16:59:46.266Z,31.86
2022-10-13T17:06:10.591Z,31.71
2022-10-13T17:12:34.899Z,31.75
2022-10-13T17:18:59.204Z,31.50
2022-10-13T17:25:23.398Z,31.21
2022-10-13T17:31:47.963Z,31.27
2022-10-13T17:38:12.243Z,31.24
2022-10-13T17:44:36.549Z,31.41
2022-10-13T17:51:00.842Z,31.62
2022-10-13T17:57:25.065Z,31.58
2022-10-13T18:03:49.267Z,31.55
2022-10-13T18:10:09.765Z,31.34
2022-10-13T18:16:37.106Z,31.27
2022-10-13T18:23:01.391Z,31.16
2022-10-13T18:29:25.597Z,31.21
2022-10-13T18:35:50.135Z,31.24
2022-10-13T18:42:14.400Z,31.40
2022-10-13T18:48:38.675Z,31.28
2022-10-13T18:55:03.072Z,31.24
2022-10-13T19:01:27.394Z,31.15
2022-10-13T19:07:51.621Z,31.12
2022-10-13T19:14:15.993Z,31.04
2022-10-13T19:20:40.193Z,30.82
2022-10-13T19:27:00.104Z,30.79
2022-10-13T19:33:25.196Z,30.77
2022-10-13T19:39:49.445Z,30.77
2022-10-13T19:46:13.686Z,30.51
2022-10-13T19:52:38.167Z,30.47
2022-10-13T19:59:01.318Z,30.48
2022-10-13T20:05:25.709Z,30.46
2022-10-13T20:11:50.069Z,30.14
2022-10-13T20:18:14.357Z,30.23
2022-10-13T20:24:38.685Z,30.21
2022-10-13T20:31:04.130Z,30.41
2022-10-13T20:37:28.431Z,30.67
2022-10-13T20:43:52.721Z,30.88
2022-10-13T20:50:16.941Z,31.20
2022-10-13T20:56:41.270Z,31.40
2022-10-13T21:03:05.557Z,31.84
2022-10-13T21:09:29.885Z,32.00
2022-10-13T21:15:54.196Z,32.20
2022-10-13T21:22:18.916Z,32.46
2022-10-13T21:28:43.397Z,32.56
2022-10-13T21:35:07.854Z,32.77
2022-10-13T21:41:32.182Z,32.98
2022-10-13T21:47:56.415Z,33.18
2022-10-13T21:54:20.884Z,33.27
2022-10-13T22:00:45.288Z,33.36
2022-10-13T22:07:09.626Z,33.59
2022-10-13T22:13:33.898Z,33.74
2022-10-13T22:19:58.223Z,33.82
2022-10-13T22:26:25.118Z,34.04
2022-10-13T22:32:49.420Z,34.19
2022-10-13T22:39:13.853Z,34.14
2022-10-13T22:45:38.123Z,34.36
2022-10-13T22:52:05.296Z,34.53
2022-10-13T22:58:29.522Z,34.71
2022-10-13T23:04:53.840Z,34.88
2022-10-13T23:11:18.162Z,35.01
2022-10-13T23:17:42.840Z,35.03
2022-10-13T23:24:07.357Z,35.32
2022-10-13T23:30:31.550Z,35.53
2022-10-13T23:36:58.635Z,35.52
2022-10-13T23:43:23.072Z,35.80
2022-10-13T23:49:47.382Z,35.83
2022-10-13T23:56:11.615Z,36.00
